Time;durP1;ratioP1;P1;durP2;ratioP2;P2;SDS_P1;SDS_P2;PMS_P1;PMS_P2;Temp;Humidity;BMP_temperature;BMP_pressure;BME280_temperature;BME280_humidity;BME280_pressure;Samples;Min_cycle;Max_cycle;Signal;HPM_P1;HPM_P2
2022/08/10 00:02:25;;;;;;;;;;;22.00;63.20;;;;;;4986721;28;19945;-84
2022/08/10 00:04:52;;;;;;;;;;;22.00;63.20;;;;;;4986490;28;19926;-84
2022/08/10 00:07:20;;;;;;;;;;;22.00;63.40;;;;;;4969978;28;20474;-84
2022/08/10 00:09:47;;;;;;;;;;;21.90;63.30;;;;;;4973605;28;20087;-84
2022/08/10 00:12:14;;;;;;;;;;;21.90;63.40;;;;;;4980983;28;19930;-84
2022/08/10 00:14:40;;;;;;;;;;;21.90;63.50;;;;;;4994454;28;19929;-85
2022/08/10 00:17:07;;;;;;;;;;;21.90;63.50;;;;;;4987154;28;19934;-84
2022/08/10 00:19:34;;;;;;;;;;;21.90;63.60;;;;;;4973332;28;19932;-84
2022/08/10 00:22:01;;;;;;;;;;;21.90;63.70;;;;;;4970458;28;20352;-84
2022/08/10 00:24:29;;;;;;;;;;;21.80;63.70;;;;;;4984510;28;19937;-83
2022/08/10 00:26:56;;;;;;;;;;;21.80;63.70;;;;;;4986936;28;19973;-83
2022/08/10 00:29:23;;;;;;;;;;;21.80;63.80;;;;;;5004600;28;20543;-84
2022/08/10 00:31:50;;;;;;;;;;;21.80;63.90;;;;;;4978863;28;19951;-84
2022/08/10 00:34:17;;;;;;;;;;;21.80;63.90;;;;;;4974061;28;19977;-84
2022/08/10 00:39:36;;;;;;;;;;;21.70;63.90;;;;;;5033638;28;20036;-94
2022/08/10 00:42:05;;;;;;;;;;;21.70;64.00;;;;;;5043720;28;19921;-96
2022/08/10 00:44:32;;;;;;;;;;;21.70;64.00;;;;;;5030770;28;19921;-92
2022/08/10 00:46:59;;;;;;;;;;;21.60;64.00;;;;;;5030869;28;19924;-96
2022/08/10 00:49:26;;;;;;;;;;;21.60;64.10;;;;;;5028451;28;19929;-94
2022/08/10 00:51:54;;;;;;;;;;;21.60;64.10;;;;;;5028897;28;19933;-96
2022/08/10 00:54:21;;;;;;;;;;;21.60;64.30;;;;;;5014309;28;19973;-95
2022/08/10 00:56:50;;;;;;;;;;;21.60;64.30;;;;;;5024576;28;19921;-96
2022/08/10 00:59:17;;;;;;;;;;;21.50;64.30;;;;;;5032504;28;19990;-95
2022/08/10 01:01:44;;;;;;;;;;;21.60;64.50;;;;;;5027619;28;19925;-94
2022/08/10 01:04:12;;;;;;;;;;;21.50;64.40;;;;;;5010833;28;20209;-96
2022/08/10 01:06:42;;;;;;;;;;;21.50;64.50;;;;;;5041842;23;19926;-84
2022/08/10 01:09:11;;;;;;;;;;;21.50;64.60;;;;;;5016042;28;20315;-84
2022/08/10 01:11:43;;;;;;;;;;;21.40;64.60;;;;;;4995884;28;19929;-84
2022/08/10 01:14:16;;;;;;;;;;;21.40;64.70;;;;;;4994518;28;19936;-82
2022/08/10 01:16:47;;;;;;;;;;;21.40;64.70;;;;;;4993932;28;19933;-84
2022/08/10 01:19:20;;;;;;;;;;;21.40;64.80;;;;;;4980780;28;20289;-83
2022/08/10 01:22:00;;;;;;;;;;;21.40;64.80;;;;;;4998952;28;19934;-83
2022/08/10 01:24:39;;;;;;;;;;;21.30;64.80;;;;;;4978768;28;20446;-84
2022/08/10 01:27:21;;;;;;;;;;;21.30;64.90;;;;;;4994243;28;19955;-83
2022/08/10 01:29:54;;;;;;;;;;;21.30;65.00;;;;;;5001091;28;19925;-84
2022/08/10 01:32:24;;;;;;;;;;;21.30;65.00;;;;;;4985475;28;20450;-83
2022/08/10 01:34:54;;;;;;;;;;;21.20;64.90;;;;;;4993201;28;19939;-84
2022/08/10 01:37:23;;;;;;;;;;;21.20;64.90;;;;;;5000670;28;19972;-84
2022/08/10 01:39:54;;;;;;;;;;;21.20;65.10;;;;;;4976603;28;20404;-84
2022/08/10 01:42:22;;;;;;;;;;;21.20;65.10;;;;;;5002415;28;20008;-83
2022/08/10 01:44:53;;;;;;;;;;;21.20;65.10;;;;;;4988333;28;19930;-83
2022/08/10 01:50:17;;;;;;;;;;;21.10;65.10;;;;;;4978997;28;19925;-83
2022/08/10 01:52:46;;;;;;;;;;;21.10;65.30;;;;;;5002267;28;19925;-82
2022/08/10 01:55:15;;;;;;;;;;;21.10;65.30;;;;;;4984096;28;19933;-83
2022/08/10 01:57:42;;;;;;;;;;;21.10;65.40;;;;;;4977237;28;20001;-83
2022/08/10 02:00:12;;;;;;;;;;;21.00;65.40;;;;;;4986736;28;20043;-83
2022/08/10 02:02:40;;;;;;;;;;;21.00;65.40;;;;;;4979040;28;19930;-83
2022/08/10 02:05:08;;;;;;;;;;;21.00;65.40;;;;;;5000083;28;19926;-83
2022/08/10 02:07:35;;;;;;;;;;;21.00;65.60;;;;;;4976103;28;19976;-82
2022/08/10 02:10:04;;;;;;;;;;;20.90;65.50;;;;;;4999545;28;19977;-84
2022/08/10 02:12:33;;;;;;;;;;;20.90;65.60;;;;;;4984827;28;19949;-83
2022/08/10 02:15:01;;;;;;;;;;;20.90;65.60;;;;;;4999785;28;20403;-83
2022/08/10 02:17:34;;;;;;;;;;;20.90;65.60;;;;;;5001914;28;19925;-82
2022/08/10 02:20:06;;;;;;;;;;;20.80;65.60;;;;;;4988178;28;19929;-83
2022/08/10 02:22:34;;;;;;;;;;;20.80;65.70;;;;;;4998699;28;20027;-83
2022/08/10 02:25:02;;;;;;;;;;;20.80;65.80;;;;;;5003718;28;20528;-84
2022/08/10 02:27:31;;;;;;;;;;;20.80;65.80;;;;;;5003256;28;20303;-83
2022/08/10 02:29:58;;;;;;;;;;;20.80;65.90;;;;;;5004898;28;19979;-83
2022/08/10 02:32:26;;;;;;;;;;;20.70;65.80;;;;;;5004920;28;19925;-81
2022/08/10 02:34:55;;;;;;;;;;;20.70;65.80;;;;;;4991150;28;19930;-82
2022/08/10 02:37:24;;;;;;;;;;;20.70;65.90;;;;;;5006441;28;19925;-83
2022/08/10 02:40:01;;;;;;;;;;;20.70;66.00;;;;;;4998152;28;19930;-82
2022/08/10 02:42:29;;;;;;;;;;;20.60;65.90;;;;;;4988766;28;19926;-82
2022/08/10 02:45:01;;;;;;;;;;;20.60;66.00;;;;;;4994726;28;19926;-83
2022/08/10 02:47:31;;;;;;;;;;;20.60;66.00;;;;;;5009221;28;19940;-83
2022/08/10 02:50:05;;;;;;;;;;;20.60;66.00;;;;;;5006681;28;19933;-83
2022/08/10 02:52:38;;;;;;;;;;;20.60;66.00;;;;;;4992287;28;19931;-82
2022/08/10 02:55:11;;;;;;;;;;;20.60;66.10;;;;;;5011301;28;19926;-83
2022/08/10 02:57:40;;;;;;;;;;;20.50;66.00;;;;;;4990626;28;20376;-83
2022/08/10 03:00:14;;;;;;;;;;;20.50;66.10;;;;;;5027986;28;19930;-81
2022/08/10 03:02:44;;;;;;;;;;;20.50;66.20;;;;;;5007912;28;19956;-83
2022/08/10 03:05:14;;;;;;;;;;;20.50;66.20;;;;;;5008588;28;19937;-82
2022/08/10 03:07:45;;;;;;;;;;;20.50;66.20;;;;;;5007368;28;20367;-83
2022/08/10 03:10:15;;;;;;;;;;;20.50;66.30;;;;;;4992029;28;19926;-83
2022/08/10 03:12:43;;;;;;;;;;;20.40;66.30;;;;;;4995881;28;19933;-83
2022/08/10 03:15:12;;;;;;;;;;;20.40;66.30;;;;;;5010298;28;19926;-83
2022/08/10 03:17:44;;;;;;;;;;;20.40;66.40;;;;;;5010784;28;19929;-84
2022/08/10 03:20:15;;;;;;;;;;;20.30;66.40;;;;;;5007959;28;20017;-83
2022/08/10 03:22:45;;;;;;;;;;;20.30;66.40;;;;;;4989237;28;19926;-83
2022/08/10 03:25:12;;;;;;;;;;;20.30;66.40;;;;;;5010901;28;19997;-83
2022/08/10 03:27:42;;;;;;;;;;;20.30;66.50;;;;;;5010144;28;19932;-83
2022/08/10 03:30:10;;;;;;;;;;;20.30;66.50;;;;;;5014602;28;19949;-82
2022/08/10 03:32:38;;;;;;;;;;;20.20;66.50;;;;;;4993878;28;19925;-83
2022/08/10 03:35:10;;;;;;;;;;;20.20;66.40;;;;;;5013951;28;19925;-83
2022/08/10 03:37:39;;;;;;;;;;;20.20;66.40;;;;;;5013191;28;19929;-83
2022/08/10 03:40:12;;;;;;;;;;;20.20;66.50;;;;;;5018984;28;19909;-82
2022/08/10 03:42:40;;;;;;;;;;;20.20;66.50;;;;;;5012212;28;20000;-83
2022/08/10 03:45:18;;;;;;;;;;;20.10;66.40;;;;;;5013783;28;19949;-82
2022/08/10 03:47:46;;;;;;;;;;;20.10;66.50;;;;;;5001611;28;19925;-78
2022/08/10 03:50:13;;;;;;;;;;;20.10;66.50;;;;;;4974352;28;20682;-78
2022/08/10 03:52:42;;;;;;;;;;;20.10;66.60;;;;;;5000363;28;20381;-79
2022/08/10 03:55:09;;;;;;;;;;;20.10;66.60;;;;;;5001691;28;19925;-79
2022/08/10 03:57:36;;;;;;;;;;;20.10;66.60;;;;;;4996562;28;19926;-80
2022/08/10 04:00:03;;;;;;;;;;;20.00;66.60;;;;;;4996881;28;20008;-80
2022/08/10 04:02:32;;;;;;;;;;;20.00;66.60;;;;;;5006896;28;19937;-79
2022/08/10 04:04:59;;;;;;;;;;;20.00;66.70;;;;;;5003085;28;19937;-78
2022/08/10 04:10:13;;;;;;;;;;;20.00;66.90;;;;;;4991694;28;2014572;-79
2022/08/10 04:12:39;;;;;;;;;;;19.90;67.00;;;;;;5088868;28;19948;-80
2022/08/10 04:15:07;;;;;;;;;;;19.90;67.00;;;;;;5070437;28;20042;-81
2022/08/10 04:17:34;;;;;;;;;;;19.90;66.90;;;;;;5077124;28;19925;-81
2022/08/10 04:20:01;;;;;;;;;;;19.90;66.90;;;;;;5060644;28;20150;-81
2022/08/10 04:22:29;;;;;;;;;;;19.80;66.80;;;;;;5054706;28;19933;-81
2022/08/10 04:24:59;;;;;;;;;;;19.80;66.80;;;;;;5083526;28;19924;-81
2022/08/10 04:27:28;;;;;;;;;;;19.80;66.90;;;;;;5076752;28;19931;-81
2022/08/10 04:29:55;;;;;;;;;;;19.80;66.90;;;;;;5075932;28;20027;-81
2022/08/10 04:32:22;;;;;;;;;;;19.80;67.00;;;;;;5072724;28;19929;-81
2022/08/10 04:34:49;;;;;;;;;;;19.80;66.90;;;;;;5078239;28;19925;-80
2022/08/10 04:37:18;;;;;;;;;;;19.70;67.00;;;;;;5062398;28;19925;-80
2022/08/10 04:39:45;;;;;;;;;;;19.70;67.00;;;;;;5077779;28;19959;-81
2022/08/10 04:42:12;;;;;;;;;;;19.70;67.10;;;;;;5086850;28;19925;-81
2022/08/10 04:44:41;;;;;;;;;;;19.70;67.10;;;;;;5070217;28;19936;-81
2022/08/10 04:47:08;;;;;;;;;;;19.70;67.20;;;;;;5087845;28;19933;-81
2022/08/10 04:49:35;;;;;;;;;;;19.70;67.30;;;;;;5089319;28;19947;-81
2022/08/10 04:52:02;;;;;;;;;;;19.60;67.10;;;;;;5055281;28;19952;-81
2022/08/10 04:54:29;;;;;;;;;;;19.60;67.20;;;;;;5058188;28;19933;-81
2022/08/10 04:59:59;;;;;;;;;;;19.50;67.30;;;;;;5075637;23;19985;-80
2022/08/10 05:02:26;;;;;;;;;;;19.50;67.30;;;;;;5025211;28;20197;-81
2022/08/10 05:04:55;;;;;;;;;;;19.50;67.30;;;;;;5046675;28;19916;-81
2022/08/10 05:07:22;;;;;;;;;;;19.50;67.50;;;;;;5016991;28;20021;-80
2022/08/10 05:09:54;;;;;;;;;;;19.50;67.50;;;;;;5023729;28;19935;-80
2022/08/10 05:14:59;;;;;;;;;;;19.40;67.60;;;;;;5901181;23;19936;-80
2022/08/10 05:17:26;;;;;;;;;;;19.40;67.60;;;;;;5316929;23;19944;-80
2022/08/10 05:28:06;;;;;;;;;;;19.40;67.90;;;;;;5926383;23;19945;-79
2022/08/10 05:30:36;;;;;;;;;;;19.40;68.00;;;;;;5308342;23;19930;-77
2022/08/10 05:33:06;;;;;;;;;;;19.40;68.10;;;;;;5104004;23;19926;-80
2022/08/10 05:38:17;;;;;;;;;;;19.30;68.10;;;;;;5419895;23;20417;-80
2022/08/10 05:40:44;;;;;;;;;;;19.30;68.10;;;;;;4996288;28;19934;-81
2022/08/10 05:43:13;;;;;;;;;;;19.30;68.20;;;;;;5223742;23;20379;-80
2022/08/10 05:48:23;;;;;;;;;;;19.30;68.30;;;;;;5252269;23;20411;-79
2022/08/10 05:50:50;;;;;;;;;;;19.30;68.60;;;;;;4977294;28;19933;-78
2022/08/10 05:53:17;;;;;;;;;;;19.30;69.00;;;;;;5006179;28;20017;-80
2022/08/10 05:55:44;;;;;;;;;;;19.30;69.10;;;;;;4989465;28;19932;-80
2022/08/10 05:58:11;;;;;;;;;;;19.30;69.10;;;;;;5006871;28;20465;-81
2022/08/10 06:00:38;;;;;;;;;;;19.30;68.90;;;;;;5004398;28;19932;-80
2022/08/10 06:03:07;;;;;;;;;;;19.30;68.80;;;;;;5005117;28;19933;-80
2022/08/10 06:05:38;;;;;;;;;;;19.30;68.70;;;;;;5006860;28;20329;-80
2022/08/10 06:08:08;;;;;;;;;;;19.30;68.70;;;;;;5002534;28;19926;-80
2022/08/10 06:10:36;;;;;;;;;;;19.30;68.70;;;;;;4988979;28;19925;-80
2022/08/10 06:15:49;;;;;;;;;;;19.30;68.80;;;;;;5006611;28;19922;-80
2022/08/10 06:18:18;;;;;;;;;;;19.20;68.70;;;;;;5003395;28;20352;-80
2022/08/10 06:20:47;;;;;;;;;;;19.20;68.90;;;;;;5006583;28;19997;-79
2022/08/10 06:23:14;;;;;;;;;;;19.30;69.30;;;;;;4980233;28;19937;-79
2022/08/10 06:25:41;;;;;;;;;;;19.30;70.20;;;;;;4987662;28;20396;-80
2022/08/10 06:30:50;;;;;;;;;;;19.20;70.30;;;;;;5136580;23;19932;-79
2022/08/10 06:33:18;;;;;;;;;;;19.20;70.40;;;;;;4987175;28;20741;-80
2022/08/10 06:35:48;;;;;;;;;;;19.20;70.40;;;;;;5005348;28;19929;-80
2022/08/10 06:38:16;;;;;;;;;;;19.30;70.60;;;;;;4976554;28;19949;-80
2022/08/10 06:40:45;;;;;;;;;;;19.30;70.70;;;;;;4973268;28;19977;-80
2022/08/10 06:43:13;;;;;;;;;;;19.30;71.40;;;;;;4980686;28;19926;-79
2022/08/10 06:45:42;;;;;;;;;;;19.30;70.70;;;;;;4996993;28;20273;-78
2022/08/10 06:48:13;;;;;;;;;;;19.30;71.00;;;;;;4968972;28;19976;-78
2022/08/10 06:50:41;;;;;;;;;;;19.30;71.20;;;;;;4984331;28;19985;-79
2022/08/10 06:53:11;;;;;;;;;;;19.30;71.30;;;;;;4987546;28;20376;-79
2022/08/10 06:55:40;;;;;;;;;;;19.30;71.30;;;;;;4985269;28;20432;-79
2022/08/10 06:58:08;;;;;;;;;;;19.30;71.20;;;;;;4984203;28;19973;-79
2022/08/10 07:00:37;;;;;;;;;;;19.40;72.10;;;;;;4986232;28;20117;-79
2022/08/10 07:03:07;;;;;;;;;;;19.40;71.40;;;;;;4968225;28;19961;-79
2022/08/10 07:05:35;;;;;;;;;;;19.40;71.40;;;;;;4969965;28;20427;-79
2022/08/10 07:08:02;;;;;;;;;;;19.40;71.50;;;;;;4982286;28;19934;-79
2022/08/10 07:10:31;;;;;;;;;;;19.40;71.40;;;;;;4985943;28;19941;-79
2022/08/10 07:12:59;;;;;;;;;;;19.40;71.50;;;;;;4963807;28;19925;-79
2022/08/10 07:15:27;;;;;;;;;;;19.40;71.60;;;;;;4964221;28;19930;-79
2022/08/10 07:17:54;;;;;;;;;;;19.50;71.80;;;;;;4984863;28;19936;-79
2022/08/10 07:20:22;;;;;;;;;;;19.50;71.90;;;;;;4988368;28;19937;-79
2022/08/10 07:22:51;;;;;;;;;;;19.50;72.00;;;;;;4980454;28;20414;-79
2022/08/10 07:25:19;;;;;;;;;;;19.50;72.10;;;;;;4982309;28;20368;-79
2022/08/10 07:27:49;;;;;;;;;;;19.50;72.20;;;;;;4981408;28;20467;-79
2022/08/10 07:30:16;;;;;;;;;;;19.50;72.20;;;;;;4988190;28;20047;-80
2022/08/10 07:32:44;;;;;;;;;;;19.50;72.20;;;;;;4984118;28;19977;-79
2022/08/10 07:35:12;;;;;;;;;;;19.50;72.20;;;;;;4984840;28;19988;-79
2022/08/10 07:37:39;;;;;;;;;;;19.50;72.20;;;;;;4986028;28;19925;-79
2022/08/10 07:40:08;;;;;;;;;;;19.50;72.30;;;;;;4964793;28;19934;-79
2022/08/10 07:42:37;;;;;;;;;;;19.60;72.40;;;;;;4959712;28;19926;-80
2022/08/10 07:45:06;;;;;;;;;;;19.60;72.50;;;;;;4982653;28;19988;-79
2022/08/10 07:47:35;;;;;;;;;;;19.60;72.60;;;;;;4963349;28;19941;-79
2022/08/10 07:50:05;;;;;;;;;;;19.60;72.70;;;;;;4983582;28;19996;-79
2022/08/10 07:52:34;;;;;;;;;;;19.60;72.70;;;;;;4965854;28;19933;-79
2022/08/10 07:55:02;;;;;;;;;;;19.60;72.80;;;;;;4977762;28;19933;-79
2022/08/10 07:57:30;;;;;;;;;;;19.60;72.70;;;;;;4983793;28;19926;-80
2022/08/10 07:59:59;;;;;;;;;;;19.70;72.90;;;;;;4983579;28;19930;-79
2022/08/10 08:02:28;;;;;;;;;;;19.70;72.90;;;;;;4966434;28;19926;-79
2022/08/10 08:04:57;;;;;;;;;;;19.70;72.90;;;;;;4985847;28;19977;-80
2022/08/10 08:07:24;;;;;;;;;;;19.70;72.80;;;;;;4982754;28;19954;-79
2022/08/10 08:09:51;;;;;;;;;;;19.70;72.70;;;;;;4981118;28;19933;-79
2022/08/10 08:12:19;;;;;;;;;;;19.60;72.80;;;;;;4981735;28;19926;-79
2022/08/10 08:14:47;;;;;;;;;;;19.70;73.00;;;;;;4980756;28;19930;-79
2022/08/10 08:17:15;;;;;;;;;;;19.70;73.00;;;;;;4986425;28;20289;-79
2022/08/10 08:19:44;;;;;;;;;;;19.70;73.00;;;;;;4981954;28;19933;-79
2022/08/10 08:22:11;;;;;;;;;;;19.70;72.90;;;;;;4979668;28;19926;-79
2022/08/10 08:24:39;;;;;;;;;;;19.70;72.90;;;;;;4979678;28;19927;-79
2022/08/10 08:27:06;;;;;;;;;;;19.70;72.80;;;;;;4980497;28;19973;-79
2022/08/10 08:29:34;;;;;;;;;;;19.80;73.00;;;;;;4979085;28;19934;-79
2022/08/10 08:32:02;;;;;;;;;;;19.80;73.00;;;;;;4962386;28;19933;-79
2022/08/10 08:34:29;;;;;;;;;;;19.70;72.90;;;;;;4958371;28;19973;-79
2022/08/10 08:36:58;;;;;;;;;;;19.80;73.00;;;;;;4979865;28;19984;-79
2022/08/10 08:39:25;;;;;;;;;;;19.80;73.00;;;;;;4976186;28;20331;-79
2022/08/10 08:41:57;;;;;;;;;;;19.80;73.10;;;;;;4982582;28;19988;-79
2022/08/10 08:44:27;;;;;;;;;;;19.80;73.00;;;;;;4967569;28;19941;-79
2022/08/10 08:47:07;;;;;;;;;;;19.80;73.10;;;;;;4964639;28;19934;-79
2022/08/10 08:49:43;;;;;;;;;;;19.80;73.00;;;;;;4982053;28;19933;-79
2022/08/10 08:52:16;;;;;;;;;;;19.80;73.00;;;;;;4964355;28;20652;-79
2022/08/10 08:54:48;;;;;;;;;;;19.80;73.00;;;;;;4985106;28;19930;-79
2022/08/10 08:57:20;;;;;;;;;;;19.80;72.80;;;;;;4983787;28;19926;-79
2022/08/10 08:59:53;;;;;;;;;;;19.90;72.90;;;;;;4966623;28;19937;-79
2022/08/10 09:02:30;;;;;;;;;;;19.90;72.80;;;;;;4985943;28;20397;-79
2022/08/10 09:05:04;;;;;;;;;;;19.90;72.60;;;;;;4963103;28;19934;-79
2022/08/10 09:07:56;;;;;;;;;;;19.90;72.50;;;;;;4981005;28;19926;-79
2022/08/10 09:10:29;;;;;;;;;;;19.90;72.40;;;;;;4985772;28;19929;-80
2022/08/10 09:12:59;;;;;;;;;;;19.90;72.30;;;;;;4983968;28;19926;-78
2022/08/10 09:15:29;;;;;;;;;;;20.00;72.30;;;;;;4990546;28;19984;-79
2022/08/10 09:18:02;;;;;;;;;;;19.90;72.10;;;;;;4981838;28;20008;-79
2022/08/10 09:20:32;;;;;;;;;;;20.00;72.30;;;;;;4984020;28;19926;-79
2022/08/10 09:23:03;;;;;;;;;;;20.00;72.10;;;;;;4981873;28;19932;-78
2022/08/10 09:25:34;;;;;;;;;;;20.00;72.00;;;;;;4982953;28;19934;-79
2022/08/10 09:28:03;;;;;;;;;;;20.00;71.80;;;;;;4984058;28;19926;-79
2022/08/10 09:30:33;;;;;;;;;;;20.00;71.60;;;;;;4981466;28;19930;-79
2022/08/10 09:33:03;;;;;;;;;;;20.00;71.50;;;;;;4971388;28;19930;-79
2022/08/10 09:35:36;;;;;;;;;;;20.00;71.50;;;;;;4989200;28;19992;-79
2022/08/10 09:38:11;;;;;;;;;;;20.10;71.60;;;;;;4984833;28;20626;-78
2022/08/10 09:40:42;;;;;;;;;;;20.10;71.60;;;;;;4993421;28;20028;-79
2022/08/10 09:43:13;;;;;;;;;;;20.10;71.60;;;;;;4977064;28;20150;-79
2022/08/10 09:45:50;;;;;;;;;;;20.10;71.60;;;;;;4966181;28;20135;-79
2022/08/10 09:48:23;;;;;;;;;;;20.10;71.40;;;;;;4980270;28;19949;-79
2022/08/10 09:50:54;;;;;;;;;;;20.10;71.20;;;;;;4987106;28;19933;-79
2022/08/10 09:53:31;;;;;;;;;;;20.10;71.00;;;;;;4983302;28;20036;-79
2022/08/10 09:56:06;;;;;;;;;;;20.10;71.00;;;;;;4983452;28;19992;-79
2022/08/10 09:58:40;;;;;;;;;;;20.20;71.10;;;;;;4967037;28;20140;-79
2022/08/10 10:01:11;;;;;;;;;;;20.20;71.10;;;;;;4966971;28;19925;-79
2022/08/10 10:03:44;;;;;;;;;;;20.20;70.70;;;;;;4984453;28;19956;-79
2022/08/10 10:06:15;;;;;;;;;;;20.20;70.50;;;;;;4968261;28;19940;-79
2022/08/10 10:08:51;;;;;;;;;;;20.20;70.60;;;;;;4984362;28;20155;-79
2022/08/10 10:11:20;;;;;;;;;;;20.20;70.70;;;;;;4984222;28;20432;-79
2022/08/10 10:13:56;;;;;;;;;;;20.20;70.60;;;;;;4983927;28;19926;-79
2022/08/10 10:16:33;;;;;;;;;;;20.30;70.70;;;;;;4979468;28;20024;-79
2022/08/10 10:19:04;;;;;;;;;;;20.30;70.60;;;;;;4984662;28;19981;-79
2022/08/10 10:21:37;;;;;;;;;;;20.30;70.60;;;;;;4981969;28;19930;-79
2022/08/10 10:24:07;;;;;;;;;;;20.30;70.60;;;;;;4983766;28;19926;-80
2022/08/10 10:26:41;;;;;;;;;;;20.40;70.50;;;;;;4982547;28;19949;-79
2022/08/10 10:29:14;;;;;;;;;;;20.40;70.20;;;;;;4987139;28;19926;-79
2022/08/10 10:31:43;;;;;;;;;;;20.40;70.20;;;;;;4983410;28;20021;-79
2022/08/10 10:34:13;;;;;;;;;;;20.40;70.10;;;;;;4984621;28;19976;-79
2022/08/10 10:36:42;;;;;;;;;;;20.40;70.00;;;;;;4986036;28;19995;-79
2022/08/10 10:39:12;;;;;;;;;;;20.40;69.80;;;;;;4984832;28;19929;-79
2022/08/10 10:41:47;;;;;;;;;;;20.40;69.90;;;;;;4964056;28;20353;-80
2022/08/10 10:44:21;;;;;;;;;;;20.40;70.10;;;;;;4984950;28;19934;-80
2022/08/10 10:46:53;;;;;;;;;;;20.50;70.00;;;;;;4978291;28;19945;-79
2022/08/10 10:49:29;;;;;;;;;;;20.50;69.80;;;;;;4983662;28;19926;-81
2022/08/10 10:52:00;;;;;;;;;;;20.50;69.40;;;;;;4987015;28;19976;-78
2022/08/10 10:54:41;;;;;;;;;;;20.60;69.40;;;;;;4980009;28;19926;-81
2022/08/10 10:57:12;;;;;;;;;;;20.60;69.50;;;;;;4981028;28;20381;-79
2022/08/10 10:59:43;;;;;;;;;;;20.60;69.60;;;;;;4968588;28;19925;-79
2022/08/10 11:02:17;;;;;;;;;;;20.60;69.50;;;;;;4981515;28;19925;-79
2022/08/10 11:04:46;;;;;;;;;;;20.60;69.20;;;;;;4963797;28;19934;-79
2022/08/10 11:07:16;;;;;;;;;;;20.60;69.00;;;;;;4982913;28;19930;-79
2022/08/10 11:09:46;;;;;;;;;;;20.70;68.90;;;;;;4984130;28;20453;-79
2022/08/10 11:12:18;;;;;;;;;;;20.60;68.60;;;;;;4964844;28;19934;-79
2022/08/10 11:14:48;;;;;;;;;;;20.60;68.10;;;;;;4962981;28;20015;-79
2022/08/10 11:17:18;;;;;;;;;;;20.70;68.10;;;;;;4985224;28;20000;-79
2022/08/10 11:19:51;;;;;;;;;;;20.60;68.20;;;;;;4963636;28;19937;-79
2022/08/10 11:22:22;;;;;;;;;;;20.70;68.30;;;;;;4980246;28;20474;-79
2022/08/10 11:24:53;;;;;;;;;;;20.70;68.20;;;;;;4981640;28;20403;-79
2022/08/10 11:27:25;;;;;;;;;;;20.70;67.80;;;;;;4985165;28;20380;-79
2022/08/10 11:29:56;;;;;;;;;;;20.80;67.50;;;;;;4984612;28;20132;-79
2022/08/10 11:32:24;;;;;;;;;;;20.80;67.10;;;;;;4963698;28;19938;-79
2022/08/10 11:34:54;;;;;;;;;;;20.80;66.50;;;;;;4981858;28;20484;-79
2022/08/10 11:37:26;;;;;;;;;;;20.80;66.30;;;;;;4981689;28;19993;-78
2022/08/10 11:39:56;;;;;;;;;;;20.80;66.30;;;;;;4984851;28;20222;-79
2022/08/10 11:42:30;;;;;;;;;;;20.80;66.20;;;;;;4978037;28;19925;-80
2022/08/10 11:45:00;;;;;;;;;;;20.80;66.20;;;;;;4981587;28;19930;-79
2022/08/10 11:47:31;;;;;;;;;;;20.90;66.20;;;;;;4978557;28;19968;-78
2022/08/10 11:50:03;;;;;;;;;;;20.90;65.90;;;;;;4980059;28;20002;-78
2022/08/10 11:52:34;;;;;;;;;;;20.90;65.80;;;;;;4978545;28;20288;-80
2022/08/10 11:55:09;;;;;;;;;;;20.90;65.90;;;;;;4975686;28;19933;-78
2022/08/10 11:57:37;;;;;;;;;;;21.00;66.20;;;;;;4978125;28;20173;-78
2022/08/10 12:00:03;;;;;;;;;;;21.00;66.10;;;;;;4983074;28;20471;-79
2022/08/10 12:02:35;;;;;;;;;;;21.00;66.20;;;;;;4979514;28;19934;-78
2022/08/10 12:05:06;;;;;;;;;;;21.00;66.40;;;;;;4981977;28;19929;-78
2022/08/10 12:07:33;;;;;;;;;;;21.00;66.20;;;;;;4974881;28;19926;-78
2022/08/10 12:10:01;;;;;;;;;;;21.00;65.90;;;;;;4981689;28;20000;-79
2022/08/10 12:12:33;;;;;;;;;;;21.10;65.70;;;;;;4987932;28;19960;-80
2022/08/10 12:15:02;;;;;;;;;;;21.10;65.70;;;;;;4975910;28;20377;-80
2022/08/10 12:17:31;;;;;;;;;;;21.10;65.90;;;;;;4976916;28;19937;-78
2022/08/10 12:20:02;;;;;;;;;;;21.10;65.80;;;;;;4981994;28;19926;-78
2022/08/10 12:22:30;;;;;;;;;;;21.10;66.00;;;;;;4981956;28;19942;-79
2022/08/10 12:24:59;;;;;;;;;;;21.20;65.80;;;;;;4952722;28;19936;-77
2022/08/10 12:27:29;;;;;;;;;;;21.20;65.30;;;;;;4951819;28;19952;-78
2022/08/10 12:30:02;;;;;;;;;;;21.40;63.90;;;;;;4981881;28;20111;-81
2022/08/10 12:32:32;;;;;;;;;;;21.70;63.00;;;;;;4986846;28;20376;-82
2022/08/10 12:35:01;;;;;;;;;;;21.80;63.20;;;;;;4988805;28;20068;-83
2022/08/10 12:37:31;;;;;;;;;;;21.80;63.60;;;;;;4972412;28;19926;-83
2022/08/10 12:40:02;;;;;;;;;;;21.70;64.10;;;;;;4985189;28;19926;-83
2022/08/10 12:42:33;;;;;;;;;;;21.70;63.70;;;;;;4983799;28;20434;-83
2022/08/10 12:45:03;;;;;;;;;;;21.70;63.30;;;;;;4986479;28;19926;-83
2022/08/10 12:47:38;;;;;;;;;;;21.70;63.20;;;;;;4960451;28;19937;-77
2022/08/10 12:50:07;;;;;;;;;;;21.70;63.20;;;;;;4957620;28;20451;-78
2022/08/10 12:52:37;;;;;;;;;;;21.70;63.10;;;;;;4978172;28;19936;-77
2022/08/10 12:55:05;;;;;;;;;;;21.80;64.10;;;;;;4983056;28;19930;-76
2022/08/10 12:57:34;;;;;;;;;;;21.80;62.90;;;;;;4984360;28;20504;-77
2022/08/10 13:00:04;;;;;;;;;;;21.80;62.70;;;;;;4987616;28;20024;-76
2022/08/10 13:02:33;;;;;;;;;;;21.80;62.80;;;;;;4968799;28;19934;-77
2022/08/10 13:05:02;;;;;;;;;;;21.90;62.20;;;;;;4970156;28;19932;-78
2022/08/10 13:07:31;;;;;;;;;;;21.90;63.00;;;;;;4984501;28;20359;-77
2022/08/10 13:10:01;;;;;;;;;;;21.90;63.10;;;;;;4967463;28;20424;-77
2022/08/10 13:12:30;;;;;;;;;;;22.00;63.40;;;;;;4990823;28;19926;-76
2022/08/10 13:14:59;;;;;;;;;;;22.00;63.60;;;;;;4985964;28;19934;-78
2022/08/10 13:17:28;;;;;;;;;;;22.00;63.60;;;;;;4963908;28;20256;-78
2022/08/10 13:19:56;;;;;;;;;;;22.10;63.20;;;;;;4989058;28;19926;-79
2022/08/10 13:22:25;;;;;;;;;;;22.20;63.50;;;;;;4986001;28;19930;-77
2022/08/10 13:24:53;;;;;;;;;;;22.20;63.70;;;;;;4980193;28;20408;-78
2022/08/10 13:27:24;;;;;;;;;;;22.30;63.70;;;;;;4985946;28;20250;-77
2022/08/10 13:29:54;;;;;;;;;;;22.30;62.70;;;;;;4966773;28;19936;-77
2022/08/10 13:32:24;;;;;;;;;;;22.30;62.90;;;;;;4987560;28;20537;-77
2022/08/10 13:34:53;;;;;;;;;;;22.40;63.10;;;;;;4983548;28;20258;-78
2022/08/10 13:37:22;;;;;;;;;;;22.40;63.00;;;;;;4981835;28;20371;-77
2022/08/10 13:39:51;;;;;;;;;;;22.50;63.10;;;;;;4986193;28;20035;-75
2022/08/10 13:42:19;;;;;;;;;;;22.50;62.90;;;;;;4979389;28;20012;-77
2022/08/10 13:44:47;;;;;;;;;;;22.60;62.90;;;;;;4987071;28;19937;-77
2022/08/10 13:47:15;;;;;;;;;;;22.60;63.00;;;;;;4974995;28;20463;-77
2022/08/10 13:49:45;;;;;;;;;;;22.70;62.70;;;;;;4969980;28;19972;-77
2022/08/10 13:52:15;;;;;;;;;;;22.70;62.70;;;;;;4978463;28;19969;-77
2022/08/10 13:54:42;;;;;;;;;;;22.80;62.60;;;;;;4979739;28;19979;-77
2022/08/10 13:57:10;;;;;;;;;;;22.80;62.40;;;;;;4986023;28;20056;-78
2022/08/10 13:59:39;;;;;;;;;;;22.90;62.30;;;;;;4982164;28;20242;-83
2022/08/10 14:02:06;;;;;;;;;;;22.90;62.20;;;;;;4989468;28;19937;-85
2022/08/10 14:04:33;;;;;;;;;;;23.00;61.80;;;;;;4973446;28;20303;-84
2022/08/10 14:07:01;;;;;;;;;;;23.00;61.60;;;;;;4986112;28;19942;-84
2022/08/10 14:09:30;;;;;;;;;;;23.00;61.90;;;;;;4974086;28;20123;-86
2022/08/10 14:11:58;;;;;;;;;;;23.10;62.70;;;;;;4990656;28;19941;-85
2022/08/10 14:14:27;;;;;;;;;;;23.10;63.60;;;;;;4977075;28;19926;-84
2022/08/10 14:16:54;;;;;;;;;;;23.20;62.40;;;;;;4988170;28;19925;-84
2022/08/10 14:19:23;;;;;;;;;;;23.20;62.30;;;;;;4975296;28;19945;-83
2022/08/10 14:21:51;;;;;;;;;;;23.30;62.80;;;;;;4991627;28;19973;-84
2022/08/10 14:24:22;;;;;;;;;;;23.30;62.90;;;;;;4984076;28;19926;-79
2022/08/10 14:26:51;;;;;;;;;;;23.30;62.30;;;;;;4981861;28;19929;-82
2022/08/10 14:29:20;;;;;;;;;;;23.40;62.20;;;;;;4984020;28;19925;-79
2022/08/10 14:31:48;;;;;;;;;;;23.40;62.20;;;;;;4986779;28;19933;-81
2022/08/10 14:34:16;;;;;;;;;;;23.50;62.30;;;;;;4982150;28;19933;-81
2022/08/10 14:36:45;;;;;;;;;;;23.50;61.80;;;;;;4975728;28;19929;-77
2022/08/10 14:39:14;;;;;;;;;;;23.60;62.30;;;;;;4977830;28;20364;-80
2022/08/10 14:41:41;;;;;;;;;;;23.60;62.50;;;;;;4979633;28;19925;-76
2022/08/10 14:44:12;;;;;;;;;;;23.60;62.60;;;;;;4976854;28;20032;-77
2022/08/10 14:46:43;;;;;;;;;;;23.70;61.90;;;;;;4976089;28;19988;-78
2022/08/10 14:49:11;;;;;;;;;;;23.70;62.40;;;;;;4979456;28;19960;-81
2022/08/10 14:51:41;;;;;;;;;;;23.80;62.80;;;;;;4956216;28;20683;-78
2022/08/10 14:54:09;;;;;;;;;;;23.80;62.60;;;;;;4956586;28;20408;-77
2022/08/10 14:56:36;;;;;;;;;;;23.90;58.60;;;;;;4978179;28;19934;-79
2022/08/10 14:59:05;;;;;;;;;;;23.90;57.40;;;;;;4979214;28;19940;-78
2022/08/10 15:01:34;;;;;;;;;;;23.90;58.40;;;;;;4966352;28;19952;-78
2022/08/10 15:04:02;;;;;;;;;;;24.00;59.10;;;;;;4956494;28;20016;-79